Haydock Park, United Kingdom
Current Conditions -  °F | °C
As of 1:50 PM on Friday 24 Oct 2014 (Local Time) from EGGP Reporting Station
Scattered Clouds Scattered Clouds  
Wind Chill: 13°   Ceiling: Unl
Heat Index: 13°   Visibility: 6mi
Dew Point: 10°   Wind: 7mph
Humidity: 82%   Direction: 270°W
Pressure: 29.85"   Gusts: NA
Location:  53.47°N, 2.62°W
Report Text: EGGP 241250Z 27006KT 9999 FEW026 SCT046 13/10 Q1011
Loading
Personal Weather Stations






























Interactive Weather Map
Tropical Storm Tracking
New forecast layout! Learn more

10-Day Weather Forecast

Advertisements
Track Severe Weather on mobile